sensor_id;sensor_type;location;lat;lon;timestamp;pressure;altitude;pressure_sealevel;temperature;humidity
51781;BME280;37844;57.126;24.288;2023-02-12T00:00:47;102580.53;;;0.34;100.00
51781;BME280;37844;57.126;24.288;2023-02-12T00:03:12;102588.28;;;0.36;100.00
51781;BME280;37844;57.126;24.288;2023-02-12T00:05:38;102593.72;;;0.51;100.00
51781;BME280;37844;57.126;24.288;2023-02-12T00:08:04;102596.75;;;0.36;100.00
51781;BME280;37844;57.126;24.288;2023-02-12T00:10:29;102599.94;;;0.34;100.00
51781;BME280;37844;57.126;24.288;2023-02-12T00:12:55;102600.31;;;0.38;100.00
51781;BME280;37844;57.126;24.288;2023-02-12T00:15:20;102597.78;;;0.49;100.00
51781;BME280;37844;57.126;24.288;2023-02-12T00:17:45;102606.91;;;0.47;100.00
51781;BME280;37844;57.126;24.288;2023-02-12T00:20:11;102611.34;;;0.49;100.00
51781;BME280;37844;57.126;24.288;2023-02-12T00:22:36;102614.66;;;0.48;100.00
51781;BME280;37844;57.126;24.288;2023-02-12T00:25:02;102616.91;;;0.45;100.00
51781;BME280;37844;57.126;24.288;2023-02-12T00:27:27;102616.03;;;0.45;100.00
51781;BME280;37844;57.126;24.288;2023-02-12T00:29:52;102621.88;;;0.44;100.00
51781;BME280;37844;57.126;24.288;2023-02-12T00:32:17;102629.25;;;0.40;100.00
51781;BME280;37844;57.126;24.288;2023-02-12T00:34:44;102633.31;;;0.59;100.00
51781;BME280;37844;57.126;24.288;2023-02-12T00:37:09;102637.88;;;0.53;100.00
51781;BME280;37844;57.126;24.288;2023-02-12T00:39:35;102638.13;;;0.46;100.00
51781;BME280;37844;57.126;24.288;2023-02-12T00:42:02;102643.84;;;0.43;100.00
51781;BME280;37844;57.126;24.288;2023-02-12T00:44:27;102654.72;;;0.42;100.00
51781;BME280;37844;57.126;24.288;2023-02-12T00:46:52;102656.38;;;0.52;100.00
51781;BME280;37844;57.126;24.288;2023-02-12T00:49:18;102668.56;;;0.46;100.00
51781;BME280;37844;57.126;24.288;2023-02-12T00:51:44;102664.63;;;0.39;100.00
51781;BME280;37844;57.126;24.288;2023-02-12T00:54:09;102672.22;;;0.39;100.00
51781;BME280;37844;57.126;24.288;2023-02-12T00:56:35;102677.78;;;0.35;100.00
51781;BME280;37844;57.126;24.288;2023-02-12T00:59:00;102672.88;;;0.36;100.00
51781;BME280;37844;57.126;24.288;2023-02-12T01:01:25;102677.53;;;0.32;100.00
51781;BME280;37844;57.126;24.288;2023-02-12T01:03:51;102684.38;;;0.33;100.00
51781;BME280;37844;57.126;24.288;2023-02-12T01:06:16;102682.22;;;0.27;100.00
51781;BME280;37844;57.126;24.288;2023-02-12T01:08:41;102684.91;;;0.29;100.00
51781;BME280;37844;57.126;24.288;2023-02-12T01:11:06;102688.19;;;0.28;100.00
51781;BME280;37844;57.126;24.288;2023-02-12T01:13:32;102694.00;;;0.27;100.00
51781;BME280;37844;57.126;24.288;2023-02-12T01:18:32;102688.19;;;0.28;100.00
51781;BME280;37844;57.126;24.288;2023-02-12T01:20:57;102693.16;;;0.36;100.00
51781;BME280;37844;57.126;24.288;2023-02-12T01:23:23;102695.94;;;0.39;100.00
51781;BME280;37844;57.126;24.288;2023-02-12T01:25:48;102694.81;;;0.46;100.00
51781;BME280;37844;57.126;24.288;2023-02-12T01:28:13;102688.97;;;0.47;100.00
51781;BME280;37844;57.126;24.288;2023-02-12T01:30:39;102682.38;;;0.49;100.00
51781;BME280;37844;57.126;24.288;2023-02-12T01:33:04;102689.75;;;0.56;100.00
51781;BME280;37844;57.126;24.288;2023-02-12T01:35:29;102690.53;;;0.55;100.00
51781;BME280;37844;57.126;24.288;2023-02-12T01:37:54;102696.00;;;0.60;100.00
51781;BME280;37844;57.126;24.288;2023-02-12T01:40:20;102702.59;;;0.58;100.00
51781;BME280;37844;57.126;24.288;2023-02-12T01:42:45;102694.59;;;0.53;100.00
51781;BME280;37844;57.126;24.288;2023-02-12T01:47:36;102704.56;;;0.41;100.00
51781;BME280;37844;57.126;24.288;2023-02-12T01:50:01;102703.81;;;0.42;100.00
51781;BME280;37844;57.126;24.288;2023-02-12T01:52:30;102706.63;;;0.46;100.00
51781;BME280;37844;57.126;24.288;2023-02-12T01:54:57;102709.66;;;0.41;100.00
51781;BME280;37844;57.126;24.288;2023-02-12T01:57:25;102713.78;;;0.31;100.00
51781;BME280;37844;57.126;24.288;2023-02-12T01:59:51;102710.75;;;0.35;100.00
51781;BME280;37844;57.126;24.288;2023-02-12T02:02:18;102712.44;;;0.45;100.00
51781;BME280;37844;57.126;24.288;2023-02-12T02:04:46;102711.69;;;0.46;100.00
51781;BME280;37844;57.126;24.288;2023-02-12T02:07:12;102723.22;;;0.42;100.00
51781;BME280;37844;57.126;24.288;2023-02-12T02:09:38;102725.66;;;0.40;100.00
51781;BME280;37844;57.126;24.288;2023-02-12T02:12:04;102728.00;;;0.29;100.00
51781;BME280;37844;57.126;24.288;2023-02-12T02:14:49;102727.47;;;0.23;100.00
51781;BME280;37844;57.126;24.288;2023-02-12T02:32:09;102750.50;;;0.45;100.00
51781;BME280;37844;57.126;24.288;2023-02-12T02:37:18;102747.34;;;0.47;100.00
51781;BME280;37844;57.126;24.288;2023-02-12T02:39:49;102753.41;;;0.39;100.00
51781;BME280;37844;57.126;24.288;2023-02-12T02:42:19;102756.34;;;0.44;100.00
51781;BME280;37844;57.126;24.288;2023-02-12T02:47:13;102740.00;;;0.21;100.00
51781;BME280;37844;57.126;24.288;2023-02-12T02:49:46;102748.53;;;0.22;100.00
51781;BME280;37844;57.126;24.288;2023-02-12T02:52:16;102748.78;;;0.25;100.00
51781;BME280;37844;57.126;24.288;2023-02-12T02:54:44;102759.06;;;0.26;100.00
51781;BME280;37844;57.126;24.288;2023-02-12T02:57:13;102762.59;;;0.28;100.00
51781;BME280;37844;57.126;24.288;2023-02-12T02:59:41;102765.69;;;0.34;100.00
51781;BME280;37844;57.126;24.288;2023-02-12T03:02:16;102776.59;;;0.33;100.00
51781;BME280;37844;57.126;24.288;2023-02-12T03:04:46;102774.81;;;0.32;100.00
51781;BME280;37844;57.126;24.288;2023-02-12T03:07:14;102775.06;;;0.35;100.00
51781;BME280;37844;57.126;24.288;2023-02-12T03:09:46;102778.91;;;0.40;100.00
51781;BME280;37844;57.126;24.288;2023-02-12T03:12:18;102776.25;;;0.39;100.00
51781;BME280;37844;57.126;24.288;2023-02-12T03:14:46;102785.56;;;0.30;100.00
51781;BME280;37844;57.126;24.288;2023-02-12T03:17:16;102786.69;;;0.23;100.00
51781;BME280;37844;57.126;24.288;2023-02-12T03:19:46;102796.94;;;0.14;100.00
51781;BME280;37844;57.126;24.288;2023-02-12T03:22:15;102809.81;;;0.07;100.00
51781;BME280;37844;57.126;24.288;2023-02-12T03:24:43;102804.88;;;0.09;100.00
51781;BME280;37844;57.126;24.288;2023-02-12T03:29:35;102814.31;;;0.20;100.00
51781;BME280;37844;57.126;24.288;2023-02-12T03:40:18;102824.06;;;0.15;100.00
51781;BME280;37844;57.126;24.288;2023-02-12T03:42:53;102820.13;;;0.19;100.00
51781;BME280;37844;57.126;24.288;2023-02-12T03:50:45;102820.41;;;0.22;100.00
51781;BME280;37844;57.126;24.288;2023-02-12T03:53:13;102818.28;;;0.27;100.00
51781;BME280;37844;57.126;24.288;2023-02-12T03:55:40;102828.69;;;0.30;100.00
51781;BME280;37844;57.126;24.288;2023-02-12T03:58:07;102822.13;;;0.32;100.00
51781;BME280;37844;57.126;24.288;2023-02-12T04:00:35;102819.09;;;0.36;100.00
51781;BME280;37844;57.126;24.288;2023-02-12T04:03:01;102811.72;;;0.29;100.00
51781;BME280;37844;57.126;24.288;2023-02-12T04:05:27;102812.84;;;0.32;100.00
51781;BME280;37844;57.126;24.288;2023-02-12T04:07:53;102814.91;;;0.36;100.00
51781;BME280;37844;57.126;24.288;2023-02-12T04:10:31;102813.25;;;0.37;100.00
51781;BME280;37844;57.126;24.288;2023-02-12T04:13:04;102827.44;;;0.35;100.00
51781;BME280;37844;57.126;24.288;2023-02-12T04:18:20;102822.16;;;0.42;100.00
51781;BME280;37844;57.126;24.288;2023-02-12T04:20:53;102830.03;;;0.45;100.00
51781;BME280;37844;57.126;24.288;2023-02-12T04:33:54;102854.72;;;0.37;100.00
51781;BME280;37844;57.126;24.288;2023-02-12T04:36:25;102864.41;;;0.23;100.00
51781;BME280;37844;57.126;24.288;2023-02-12T04:38:53;102866.19;;;0.24;100.00
51781;BME280;37844;57.126;24.288;2023-02-12T04:41:20;102871.88;;;0.21;100.00
51781;BME280;37844;57.126;24.288;2023-02-12T04:43:45;102880.88;;;0.36;100.00
51781;BME280;37844;57.126;24.288;2023-02-12T04:46:11;102878.88;;;0.24;100.00
51781;BME280;37844;57.126;24.288;2023-02-12T04:48:36;102880.25;;;0.20;100.00
51781;BME280;37844;57.126;24.288;2023-02-12T04:51:09;102889.34;;;0.37;100.00
51781;BME280;37844;57.126;24.288;2023-02-12T04:53:35;102886.81;;;0.37;100.00
51781;BME280;37844;57.126;24.288;2023-02-12T04:56:02;102880.03;;;0.46;100.00
51781;BME280;37844;57.126;24.288;2023-02-12T04:58:27;102881.09;;;0.58;100.00
51781;BME280;37844;57.126;24.288;2023-02-12T05:00:52;102887.03;;;0.49;100.00
51781;BME280;37844;57.126;24.288;2023-02-12T05:03:18;102886.97;;;0.38;100.00
51781;BME280;37844;57.126;24.288;2023-02-12T05:05:43;102888.38;;;0.45;100.00
51781;BME280;37844;57.126;24.288;2023-02-12T05:08:08;102890.91;;;0.45;100.00
51781;BME280;37844;57.126;24.288;2023-02-12T05:10:34;102890.72;;;0.52;100.00
51781;BME280;37844;57.126;24.288;2023-02-12T05:12:59;102888.94;;;0.51;100.00
51781;BME280;37844;57.126;24.288;2023-02-12T05:15:24;102878.94;;;0.53;100.00
51781;BME280;37844;57.126;24.288;2023-02-12T05:17:50;102887.91;;;0.49;100.00
51781;BME280;37844;57.126;24.288;2023-02-12T05:20:15;102874.25;;;0.57;100.00
51781;BME280;37844;57.126;24.288;2023-02-12T05:22:40;102872.06;;;0.52;100.00
51781;BME280;37844;57.126;24.288;2023-02-12T05:25:06;102877.75;;;0.49;100.00
51781;BME280;37844;57.126;24.288;2023-02-12T05:27:31;102863.72;;;0.53;100.00
51781;BME280;37844;57.126;24.288;2023-02-12T05:29:57;102884.22;;;0.46;100.00
51781;BME280;37844;57.126;24.288;2023-02-12T05:32:22;102875.38;;;0.51;100.00
51781;BME280;37844;57.126;24.288;2023-02-12T05:34:47;102878.41;;;0.57;100.00
51781;BME280;37844;57.126;24.288;2023-02-12T05:37:13;102863.41;;;0.50;100.00
51781;BME280;37844;57.126;24.288;2023-02-12T05:39:38;102864.66;;;0.45;100.00
51781;BME280;37844;57.126;24.288;2023-02-12T05:42:03;102879.78;;;0.43;100.00
51781;BME280;37844;57.126;24.288;2023-02-12T05:44:29;102875.78;;;0.55;100.00
51781;BME280;37844;57.126;24.288;2023-02-12T05:46:54;102871.22;;;0.61;100.00
51781;BME280;37844;57.126;24.288;2023-02-12T05:49:19;102882.56;;;0.75;100.00
51781;BME280;37844;57.126;24.288;2023-02-12T05:51:45;102886.75;;;0.75;100.00
51781;BME280;37844;57.126;24.288;2023-02-12T05:54:10;102890.06;;;0.74;100.00
51781;BME280;37844;57.126;24.288;2023-02-12T05:56:36;102892.09;;;0.78;100.00
51781;BME280;37844;57.126;24.288;2023-02-12T05:59:06;102898.28;;;0.71;100.00
51781;BME280;37844;57.126;24.288;2023-02-12T06:01:36;102909.22;;;0.70;100.00
51781;BME280;37844;57.126;24.288;2023-02-12T06:04:02;102912.81;;;0.53;100.00
51781;BME280;37844;57.126;24.288;2023-02-12T06:06:28;102917.63;;;0.50;100.00
51781;BME280;37844;57.126;24.288;2023-02-12T06:08:53;102914.34;;;0.61;100.00
51781;BME280;37844;57.126;24.288;2023-02-12T06:11:19;102923.78;;;0.62;100.00
51781;BME280;37844;57.126;24.288;2023-02-12T06:13:45;102930.28;;;0.69;100.00
51781;BME280;37844;57.126;24.288;2023-02-12T06:18:42;102929.56;;;0.80;100.00
51781;BME280;37844;57.126;24.288;2023-02-12T06:21:07;102950.41;;;0.87;100.00
51781;BME280;37844;57.126;24.288;2023-02-12T06:23:33;102941.25;;;0.78;100.00
51781;BME280;37844;57.126;24.288;2023-02-12T06:25:58;102946.41;;;0.70;100.00
51781;BME280;37844;57.126;24.288;2023-02-12T06:28:24;102942.75;;;0.76;100.00
51781;BME280;37844;57.126;24.288;2023-02-12T06:30:49;102941.06;;;0.96;100.00
51781;BME280;37844;57.126;24.288;2023-02-12T06:33:14;102942.53;;;1.13;100.00
51781;BME280;37844;57.126;24.288;2023-02-12T06:35:40;102944.84;;;1.30;100.00
51781;BME280;37844;57.126;24.288;2023-02-12T06:38:05;102939.28;;;1.34;100.00
51781;BME280;37844;57.126;24.288;2023-02-12T06:40:31;102932.44;;;1.33;100.00
51781;BME280;37844;57.126;24.288;2023-02-12T06:42:56;102929.53;;;1.39;100.00
51781;BME280;37844;57.126;24.288;2023-02-12T06:45:22;102923.03;;;1.42;100.00
51781;BME280;37844;57.126;24.288;2023-02-12T06:47:47;102916.81;;;1.49;100.00
51781;BME280;37844;57.126;24.288;2023-02-12T06:50:12;102913.28;;;1.67;100.00
51781;BME280;37844;57.126;24.288;2023-02-12T06:52:38;102916.75;;;1.88;100.00
51781;BME280;37844;57.126;24.288;2023-02-12T06:55:03;102910.13;;;1.90;100.00
51781;BME280;37844;57.126;24.288;2023-02-12T06:57:29;102913.19;;;1.86;100.00
51781;BME280;37844;57.126;24.288;2023-02-12T06:59:54;102918.63;;;2.01;100.00
51781;BME280;37844;57.126;24.288;2023-02-12T07:02:19;102917.50;;;2.08;100.00
51781;BME280;37844;57.126;24.288;2023-02-12T07:04:45;102916.34;;;2.15;100.00
51781;BME280;37844;57.126;24.288;2023-02-12T07:07:10;102934.22;;;2.57;100.00
51781;BME280;37844;57.126;24.288;2023-02-12T07:09:36;102929.78;;;2.54;100.00
51781;BME280;37844;57.126;24.288;2023-02-12T07:12:01;102928.94;;;2.76;100.00
51781;BME280;37844;57.126;24.288;2023-02-12T07:14:27;102926.72;;;2.91;100.00
51781;BME280;37844;57.126;24.288;2023-02-12T07:16:53;102918.38;;;3.04;100.00
51781;BME280;37844;57.126;24.288;2023-02-12T07:19:18;102917.94;;;3.19;100.00
51781;BME280;37844;57.126;24.288;2023-02-12T07:21:43;102913.25;;;3.36;100.00
51781;BME280;37844;57.126;24.288;2023-02-12T07:24:09;102919.44;;;3.28;100.00
51781;BME280;37844;57.126;24.288;2023-02-12T07:26:36;102919.66;;;3.31;100.00
51781;BME280;37844;57.126;24.288;2023-02-12T07:29:01;102918.22;;;3.34;100.00
51781;BME280;37844;57.126;24.288;2023-02-12T07:31:26;102917.63;;;3.49;100.00
51781;BME280;37844;57.126;24.288;2023-02-12T07:33:53;102919.28;;;3.48;100.00
51781;BME280;37844;57.126;24.288;2023-02-12T07:36:19;102923.16;;;3.43;100.00
51781;BME280;37844;57.126;24.288;2023-02-12T07:38:45;102929.00;;;3.64;100.00
51781;BME280;37844;57.126;24.288;2023-02-12T07:43:36;102936.16;;;3.58;100.00
51781;BME280;37844;57.126;24.288;2023-02-12T07:46:06;102936.59;;;3.52;100.00
51781;BME280;37844;57.126;24.288;2023-02-12T07:48:31;102939.50;;;3.57;100.00
51781;BME280;37844;57.126;24.288;2023-02-12T07:51:01;102939.13;;;3.74;100.00
51781;BME280;37844;57.126;24.288;2023-02-12T07:53:26;102938.31;;;3.97;100.00
51781;BME280;37844;57.126;24.288;2023-02-12T07:55:51;102945.81;;;4.18;100.00
51781;BME280;37844;57.126;24.288;2023-02-12T07:58:17;102946.38;;;4.25;100.00
51781;BME280;37844;57.126;24.288;2023-02-12T08:00:42;102932.81;;;4.27;100.00
51781;BME280;37844;57.126;24.288;2023-02-12T08:03:07;102931.91;;;4.14;100.00
51781;BME280;37844;57.126;24.288;2023-02-12T08:05:32;102927.81;;;4.16;100.00
51781;BME280;37844;57.126;24.288;2023-02-12T08:07:58;102936.94;;;4.48;100.00
51781;BME280;37844;57.126;24.288;2023-02-12T08:10:23;102929.28;;;4.72;100.00
51781;BME280;37844;57.126;24.288;2023-02-12T08:12:49;102934.03;;;4.91;100.00
51781;BME280;37844;57.126;24.288;2023-02-12T08:15:14;102940.13;;;5.16;100.00
51781;BME280;37844;57.126;24.288;2023-02-12T08:17:39;102924.88;;;5.29;100.00
51781;BME280;37844;57.126;24.288;2023-02-12T08:20:07;102926.34;;;5.14;100.00
51781;BME280;37844;57.126;24.288;2023-02-12T08:22:33;102923.91;;;5.16;100.00
51781;BME280;37844;57.126;24.288;2023-02-12T08:24:58;102932.78;;;5.21;100.00
51781;BME280;37844;57.126;24.288;2023-02-12T08:27:23;102929.34;;;5.20;100.00
51781;BME280;37844;57.126;24.288;2023-02-12T08:29:49;102939.25;;;5.04;100.00
51781;BME280;37844;57.126;24.288;2023-02-12T08:32:14;102943.53;;;4.80;100.00
51781;BME280;37844;57.126;24.288;2023-02-12T08:34:41;102934.72;;;4.76;100.00
51781;BME280;37844;57.126;24.288;2023-02-12T08:37:06;102945.72;;;4.40;100.00
51781;BME280;37844;57.126;24.288;2023-02-12T08:39:31;102952.84;;;3.98;100.00
51781;BME280;37844;57.126;24.288;2023-02-12T08:41:57;102950.63;;;4.03;100.00
51781;BME280;37844;57.126;24.288;2023-02-12T08:44:23;102952.22;;;4.24;100.00
51781;BME280;37844;57.126;24.288;2023-02-12T08:46:49;102958.28;;;4.37;100.00
51781;BME280;37844;57.126;24.288;2023-02-12T08:49:22;102954.78;;;4.24;100.00
51781;BME280;37844;57.126;24.288;2023-02-12T08:51:49;102960.94;;;4.62;100.00
51781;BME280;37844;57.126;24.288;2023-02-12T08:54:17;102959.59;;;5.02;100.00
51781;BME280;37844;57.126;24.288;2023-02-12T08:56:42;102938.56;;;5.18;100.00
51781;BME280;37844;57.126;24.288;2023-02-12T08:59:09;102943.00;;;5.21;100.00
51781;BME280;37844;57.126;24.288;2023-02-12T09:01:35;102937.41;;;5.63;100.00
51781;BME280;37844;57.126;24.288;2023-02-12T09:04:09;102946.03;;;6.02;100.00
51781;BME280;37844;57.126;24.288;2023-02-12T09:06:37;102939.28;;;5.91;100.00
51781;BME280;37844;57.126;24.288;2023-02-12T09:09:02;102932.06;;;5.72;100.00
51781;BME280;37844;57.126;24.288;2023-02-12T09:11:28;102928.53;;;5.58;100.00
51781;BME280;37844;57.126;24.288;2023-02-12T09:13:57;102933.53;;;5.31;100.00
51781;BME280;37844;57.126;24.288;2023-02-12T09:16:23;102930.94;;;4.95;100.00
51781;BME280;37844;57.126;24.288;2023-02-12T09:18:55;102945.53;;;4.60;100.00
51781;BME280;37844;57.126;24.288;2023-02-12T09:21:28;102944.38;;;4.92;100.00
51781;BME280;37844;57.126;24.288;2023-02-12T09:23:53;102937.75;;;4.82;100.00
51781;BME280;37844;57.126;24.288;2023-02-12T09:26:20;102927.19;;;4.78;100.00
51781;BME280;37844;57.126;24.288;2023-02-12T09:28:46;102929.63;;;4.41;100.00
51781;BME280;37844;57.126;24.288;2023-02-12T09:31:16;102929.63;;;4.41;100.00
51781;BME280;37844;57.126;24.288;2023-02-12T09:33:42;102924.44;;;3.94;100.00
51781;BME280;37844;57.126;24.288;2023-02-12T09:36:09;102916.91;;;3.95;100.00
51781;BME280;37844;57.126;24.288;2023-02-12T09:38:34;102908.50;;;3.96;100.00
51781;BME280;37844;57.126;24.288;2023-02-12T09:41:23;102906.53;;;4.28;100.00
51781;BME280;37844;57.126;24.288;2023-02-12T09:46:57;102913.94;;;4.95;100.00
51781;BME280;37844;57.126;24.288;2023-02-12T09:51:41;102908.88;;;5.95;100.00
51781;BME280;37844;57.126;24.288;2023-02-12T09:54:14;102904.81;;;5.86;100.00
51781;BME280;37844;57.126;24.288;2023-02-12T09:56:42;102910.03;;;5.62;98.13
51781;BME280;37844;57.126;24.288;2023-02-12T09:59:10;102913.63;;;5.52;98.73
51781;BME280;37844;57.126;24.288;2023-02-12T10:01:38;102926.59;;;5.42;98.39
51781;BME280;37844;57.126;24.288;2023-02-12T10:04:04;102922.22;;;5.16;96.86
51781;BME280;37844;57.126;24.288;2023-02-12T10:06:32;102913.72;;;5.29;98.36
51781;BME280;37844;57.126;24.288;2023-02-12T10:17:02;102890.72;;;5.29;98.20
51781;BME280;37844;57.126;24.288;2023-02-12T10:25:48;102876.56;;;4.37;99.53
51781;BME280;37844;57.126;24.288;2023-02-12T10:27:42;102885.69;;;3.76;100.00
51781;BME280;37844;57.126;24.288;2023-02-12T10:30:13;102876.28;;;3.53;100.00
51781;BME280;37844;57.126;24.288;2023-02-12T10:32:40;102869.56;;;3.31;100.00
51781;BME280;37844;57.126;24.288;2023-02-12T10:35:12;102877.38;;;3.45;100.00
51781;BME280;37844;57.126;24.288;2023-02-12T10:37:45;102864.00;;;3.25;100.00
51781;BME280;37844;57.126;24.288;2023-02-12T10:40:21;102854.16;;;3.08;100.00
51781;BME280;37844;57.126;24.288;2023-02-12T10:42:48;102847.88;;;3.14;100.00
51781;BME280;37844;57.126;24.288;2023-02-12T10:45:19;102839.59;;;3.17;100.00
51781;BME280;37844;57.126;24.288;2023-02-12T10:47:45;102838.28;;;3.22;100.00
51781;BME280;37844;57.126;24.288;2023-02-12T10:50:24;102828.47;;;3.05;100.00
51781;BME280;37844;57.126;24.288;2023-02-12T10:52:58;102816.72;;;3.07;100.00
51781;BME280;37844;57.126;24.288;2023-02-12T10:55:31;102811.31;;;3.14;100.00
51781;BME280;37844;57.126;24.288;2023-02-12T10:57:57;102815.41;;;3.12;100.00
51781;BME280;37844;57.126;24.288;2023-02-12T11:00:24;102825.59;;;3.12;100.00
51781;BME280;37844;57.126;24.288;2023-02-12T11:03:26;102816.84;;;2.86;100.00
51781;BME280;37844;57.126;24.288;2023-02-12T11:05:44;102815.88;;;2.74;100.00
51781;BME280;37844;57.126;24.288;2023-02-12T11:10:50;102818.22;;;2.61;100.00
51781;BME280;37844;57.126;24.288;2023-02-12T11:13:23;102821.28;;;2.67;100.00
51781;BME280;37844;57.126;24.288;2023-02-12T11:15:50;102822.50;;;2.72;100.00
51781;BME280;37844;57.126;24.288;2023-02-12T11:18:28;102818.94;;;2.80;100.00
51781;BME280;37844;57.126;24.288;2023-02-12T11:21:15;102802.44;;;2.87;100.00
51781;BME280;37844;57.126;24.288;2023-02-12T11:23:45;102800.50;;;2.94;100.00
51781;BME280;37844;57.126;24.288;2023-02-12T11:31:20;102785.75;;;2.90;100.00
51781;BME280;37844;57.126;24.288;2023-02-12T11:33:47;102766.44;;;2.82;100.00
51781;BME280;37844;57.126;24.288;2023-02-12T11:36:29;102760.47;;;2.60;100.00
51781;BME280;37844;57.126;24.288;2023-02-12T11:38:57;102762.00;;;2.58;100.00
51781;BME280;37844;57.126;24.288;2023-02-12T11:43:48;102763.81;;;2.48;100.00
51781;BME280;37844;57.126;24.288;2023-02-12T11:46:18;102751.88;;;2.47;100.00
51781;BME280;37844;57.126;24.288;2023-02-12T11:48:44;102748.53;;;2.48;100.00
51781;BME280;37844;57.126;24.288;2023-02-12T11:51:17;102740.38;;;2.52;100.00
51781;BME280;37844;57.126;24.288;2023-02-12T11:53:45;102745.06;;;2.58;100.00
51781;BME280;37844;57.126;24.288;2023-02-12T11:56:12;102753.69;;;2.60;100.00
51781;BME280;37844;57.126;24.288;2023-02-12T11:58:38;102737.78;;;2.63;100.00
51781;BME280;37844;57.126;24.288;2023-02-12T12:01:08;102745.47;;;2.52;100.00
51781;BME280;37844;57.126;24.288;2023-02-12T12:03:42;102745.00;;;2.46;100.00
51781;BME280;37844;57.126;24.288;2023-02-12T12:14:03;102723.75;;;2.90;100.00
51781;BME280;37844;57.126;24.288;2023-02-12T12:16:40;102725.63;;;2.92;100.00
51781;BME280;37844;57.126;24.288;2023-02-12T12:19:31;102724.22;;;2.74;100.00
51781;BME280;37844;57.126;24.288;2023-02-12T12:25:07;102721.53;;;2.94;100.00
51781;BME280;37844;57.126;24.288;2023-02-12T12:27:40;102714.66;;;2.93;100.00
51781;BME280;37844;57.126;24.288;2023-02-12T12:32:54;102724.44;;;2.77;100.00
51781;BME280;37844;57.126;24.288;2023-02-12T12:35:24;102720.38;;;2.57;100.00
51781;BME280;37844;57.126;24.288;2023-02-12T12:37:53;102713.53;;;2.68;100.00
51781;BME280;37844;57.126;24.288;2023-02-12T12:42:54;102728.25;;;2.60;100.00
51781;BME280;37844;57.126;24.288;2023-02-12T12:48:30;102717.19;;;2.60;100.00
51781;BME280;37844;57.126;24.288;2023-02-12T12:51:15;102711.91;;;2.68;100.00
51781;BME280;37844;57.126;24.288;2023-02-12T12:56:18;102696.03;;;2.61;100.00
51781;BME280;37844;57.126;24.288;2023-02-12T13:14:00;102691.91;;;2.85;100.00
51781;BME280;37844;57.126;24.288;2023-02-12T13:16:48;102685.88;;;2.72;100.00
51781;BME280;37844;57.126;24.288;2023-02-12T13:21:53;102677.06;;;2.79;100.00
51781;BME280;37844;57.126;24.288;2023-02-12T13:26:55;102668.03;;;2.61;100.00
51781;BME280;37844;57.126;24.288;2023-02-12T13:29:25;102658.66;;;2.71;100.00
51781;BME280;37844;57.126;24.288;2023-02-12T13:31:54;102649.44;;;2.62;100.00
51781;BME280;37844;57.126;24.288;2023-02-12T13:34:20;102651.75;;;2.59;100.00
51781;BME280;37844;57.126;24.288;2023-02-12T13:36:47;102654.19;;;2.57;100.00
51781;BME280;37844;57.126;24.288;2023-02-12T13:41:59;102645.06;;;2.49;100.00
51781;BME280;37844;57.126;24.288;2023-02-12T13:44:35;102630.88;;;2.41;100.00
51781;BME280;37844;57.126;24.288;2023-02-12T13:49:40;102631.66;;;2.40;100.00
51781;BME280;37844;57.126;24.288;2023-02-12T13:52:23;102630.72;;;2.49;100.00
51781;BME280;37844;57.126;24.288;2023-02-12T13:55:37;102629.25;;;2.53;100.00
51781;BME280;37844;57.126;24.288;2023-02-12T13:57:40;102637.22;;;2.46;100.00
51781;BME280;37844;57.126;24.288;2023-02-12T14:00:13;102621.06;;;2.45;100.00
51781;BME280;37844;57.126;24.288;2023-02-12T14:02:51;102627.84;;;2.57;100.00
51781;BME280;37844;57.126;24.288;2023-02-12T14:05:50;102636.03;;;2.52;100.00
51781;BME280;37844;57.126;24.288;2023-02-12T14:08:20;102639.31;;;2.51;100.00
51781;BME280;37844;57.126;24.288;2023-02-12T14:11:01;102632.69;;;2.53;100.00
51781;BME280;37844;57.126;24.288;2023-02-12T14:13:27;102627.19;;;2.59;100.00
51781;BME280;37844;57.126;24.288;2023-02-12T14:15:58;102633.81;;;2.57;100.00
51781;BME280;37844;57.126;24.288;2023-02-12T14:18:41;102621.94;;;2.46;100.00
51781;BME280;37844;57.126;24.288;2023-02-12T14:23:35;102617.06;;;2.49;100.00
51781;BME280;37844;57.126;24.288;2023-02-12T14:26:02;102619.25;;;2.44;100.00
51781;BME280;37844;57.126;24.288;2023-02-12T14:33:41;102618.16;;;2.41;100.00
51781;BME280;37844;57.126;24.288;2023-02-12T14:36:17;102616.53;;;2.53;100.00
51781;BME280;37844;57.126;24.288;2023-02-12T14:46:55;102571.78;;;2.33;100.00
51781;BME280;37844;57.126;24.288;2023-02-12T14:54:43;102568.03;;;2.40;100.00
51781;BME280;37844;57.126;24.288;2023-02-12T14:57:31;102563.78;;;2.28;100.00
51781;BME280;37844;57.126;24.288;2023-02-12T14:59:56;102576.56;;;2.40;100.00
51781;BME280;37844;57.126;24.288;2023-02-12T15:02:24;102570.47;;;2.38;100.00
51781;BME280;37844;57.126;24.288;2023-02-12T15:04:50;102563.34;;;2.34;100.00
51781;BME280;37844;57.126;24.288;2023-02-12T15:07:20;102561.81;;;2.36;100.00
51781;BME280;37844;57.126;24.288;2023-02-12T15:09:50;102557.97;;;2.41;100.00
51781;BME280;37844;57.126;24.288;2023-02-12T15:12:18;102553.66;;;2.40;100.00
51781;BME280;37844;57.126;24.288;2023-02-12T15:14:47;102558.06;;;2.31;100.00
51781;BME280;37844;57.126;24.288;2023-02-12T15:17:17;102552.06;;;2.30;100.00
51781;BME280;37844;57.126;24.288;2023-02-12T15:22:42;102554.59;;;2.19;100.00
51781;BME280;37844;57.126;24.288;2023-02-12T15:27:41;102537.56;;;2.29;100.00